Time;durP1;ratioP1;P1;durP2;ratioP2;P2;SDS_P1;SDS_P2;PMS_P1;PMS_P2;Temp;Humidity;BMP_temperature;BMP_pressure;BME280_temperature;BME280_humidity;BME280_pressure;Samples;Min_cycle;Max_cycle;Signal;HPM_P1;HPM_P2
2021/04/24 00:00:19;;;;;;;15.60;9.60;;;10.60;82.80;;;;;;5057055;28;20063;-72
2021/04/24 00:02:45;;;;;;;11.48;9.55;;;10.60;82.90;;;;;;5057001;28;20034;-72
2021/04/24 00:05:32;;;;;;;12.75;9.90;;;10.50;83.20;;;;;;5056853;28;20104;-72
2021/04/24 00:08:01;;;;;;;13.65;8.88;;;10.50;83.40;;;;;;5056820;28;20333;-72
2021/04/24 00:10:28;;;;;;;11.07;9.30;;;10.50;83.50;;;;;;5056886;28;20405;-72
2021/04/24 00:12:54;;;;;;;11.88;9.13;;;10.50;83.50;;;;;;5056815;28;20029;-72
2021/04/24 00:15:20;;;;;;;11.13;8.98;;;10.50;83.40;;;;;;5056121;28;20021;-72
2021/04/24 00:17:46;;;;;;;11.52;9.85;;;10.60;83.20;;;;;;5056739;28;20057;-72
2021/04/24 00:20:16;;;;;;;12.32;9.50;;;10.60;83.10;;;;;;5057060;28;20017;-72
2021/04/24 00:22:42;;;;;;;13.30;9.50;;;10.70;82.80;;;;;;5057024;28;20032;-72
2021/04/24 00:25:09;;;;;;;12.68;9.88;;;10.70;83.00;;;;;;5057099;28;20037;-72
2021/04/24 00:27:34;;;;;;;10.30;9.18;;;10.70;83.50;;;;;;5056553;28;20412;-72
2021/04/24 00:30:00;;;;;;;12.68;9.38;;;10.60;84.10;;;;;;5056591;28;20056;-72
2021/04/24 00:32:26;;;;;;;10.38;8.82;;;10.50;84.40;;;;;;5056881;28;20064;-72
2021/04/24 00:34:51;;;;;;;13.35;9.45;;;10.40;84.00;;;;;;5056719;28;20029;-72
2021/04/24 00:37:17;;;;;;;12.50;10.35;;;10.40;84.30;;;;;;5056523;28;20409;-72
2021/04/24 00:39:43;;;;;;;13.60;9.05;;;10.40;83.60;;;;;;5056533;28;20021;-72
2021/04/24 00:42:08;;;;;;;13.55;10.07;;;10.50;83.10;;;;;;5056752;28;20064;-72
2021/04/24 00:44:35;;;;;;;17.70;10.40;;;10.60;82.70;;;;;;5056684;28;20417;-72
2021/04/24 00:47:01;;;;;;;15.40;9.65;;;10.70;81.90;;;;;;5056510;28;20463;-72
2021/04/24 00:49:27;;;;;;;12.23;9.15;;;10.80;81.80;;;;;;5056473;28;20044;-72
2021/04/24 00:51:53;;;;;;;12.50;9.68;;;10.90;81.70;;;;;;5056374;28;20056;-72
2021/04/24 00:54:19;;;;;;;11.38;8.77;;;10.90;81.20;;;;;;5056705;28;20025;-72
2021/04/24 00:56:45;;;;;;;11.23;9.30;;;10.90;81.30;;;;;;5056574;28;20037;-72
2021/04/24 00:59:11;;;;;;;13.32;8.57;;;10.80;81.70;;;;;;5056273;28;20409;-72
2021/04/24 01:01:37;;;;;;;10.73;9.27;;;10.70;82.20;;;;;;5056645;28;20036;-72
2021/04/24 01:04:02;;;;;;;13.23;10.25;;;10.50;83.10;;;;;;5056538;28;20032;-72
2021/04/24 01:06:28;;;;;;;16.58;9.52;;;10.40;83.40;;;;;;5056558;28;20402;-72
2021/04/24 01:08:54;;;;;;;10.88;8.52;;;10.40;83.70;;;;;;5056517;28;20024;-72
2021/04/24 01:11:19;;;;;;;14.30;8.68;;;10.40;84.00;;;;;;5056540;28;20029;-72
2021/04/24 01:13:45;;;;;;;10.05;8.25;;;10.30;84.50;;;;;;5056097;28;20039;-72
2021/04/24 01:16:11;;;;;;;11.18;9.23;;;10.20;84.70;;;;;;5056063;28;20025;-72
2021/04/24 01:18:37;;;;;;;11.45;9.40;;;10.10;84.90;;;;;;5056494;28;20059;-72
2021/04/24 01:21:07;;;;;;;13.23;9.95;;;10.00;85.20;;;;;;5056155;28;20029;-72
2021/04/24 01:23:34;;;;;;;13.65;9.75;;;10.00;85.30;;;;;;5056426;28;20025;-72
2021/04/24 01:26:01;;;;;;;14.30;10.98;;;9.90;85.70;;;;;;5056595;28;20179;-72
2021/04/24 01:28:29;;;;;;;13.82;9.45;;;9.80;85.80;;;;;;5060167;28;20154;-72
2021/04/24 01:30:55;;;;;;;13.57;10.13;;;9.80;86.00;;;;;;5059854;28;20112;-72
2021/04/24 01:33:22;;;;;;;13.35;10.20;;;9.80;86.20;;;;;;5059713;28;20104;-72
2021/04/24 01:35:47;;;;;;;12.25;10.27;;;9.80;86.00;;;;;;5059670;28;20036;-72
2021/04/24 01:38:13;;;;;;;12.55;9.73;;;9.80;86.20;;;;;;5060018;28;20021;-72
2021/04/24 01:40:40;;;;;;;12.73;10.63;;;9.80;86.60;;;;;;5059682;28;20102;-72
2021/04/24 01:43:06;;;;;;;12.45;10.20;;;9.80;86.80;;;;;;5059913;28;20029;-72
2021/04/24 01:45:33;;;;;;;10.35;9.25;;;9.70;86.80;;;;;;5059769;28;20102;-72
2021/04/24 01:47:59;;;;;;;13.70;9.23;;;9.70;86.90;;;;;;5059866;28;20052;-72
2021/04/24 01:50:31;;;;;;;11.13;9.85;;;9.80;86.90;;;;;;5059519;28;20053;-72
2021/04/24 01:52:58;;;;;;;12.38;10.77;;;9.70;86.80;;;;;;5059394;28;20078;-72
2021/04/24 01:55:28;;;;;;;14.13;9.93;;;9.70;86.50;;;;;;5059539;28;20037;-72
2021/04/24 01:57:55;;;;;;;11.98;9.23;;;9.80;86.20;;;;;;5059244;28;20539;-72
2021/04/24 02:00:30;;;;;;;10.63;8.98;;;9.80;86.20;;;;;;5059567;28;20021;-72
2021/04/24 02:02:57;;;;;;;16.98;10.02;;;9.80;86.80;;;;;;5059609;28;20032;-73
2021/04/24 02:05:24;;;;;;;11.57;10.13;;;9.80;86.90;;;;;;5059436;28;20082;-72
2021/04/24 02:08:05;;;;;;;13.88;10.77;;;9.80;87.00;;;;;;5059406;28;20035;-72
2021/04/24 02:10:31;;;;;;;12.32;10.65;;;9.80;87.10;;;;;;5059364;28;20029;-72
2021/04/24 02:12:59;;;;;;;13.77;11.15;;;9.70;87.60;;;;;;5059299;28;20068;-72
2021/04/24 02:15:26;;;;;;;15.05;11.05;;;9.60;88.20;;;;;;5059156;28;20033;-72
2021/04/24 02:17:51;;;;;;;13.15;11.60;;;9.60;88.00;;;;;;5059310;28;20048;-72
2021/04/24 02:20:18;;;;;;;14.77;11.88;;;9.60;87.90;;;;;;5058969;28;20329;-72
2021/04/24 02:22:44;;;;;;;16.45;11.55;;;9.60;87.90;;;;;;5059079;28;20029;-72
2021/04/24 02:25:14;;;;;;;12.50;11.20;;;9.50;87.90;;;;;;5059060;28;20045;-72
2021/04/24 02:27:40;;;;;;;14.45;11.43;;;9.50;87.90;;;;;;5058644;28;20512;-73
2021/04/24 02:30:08;;;;;;;16.08;11.38;;;9.50;87.90;;;;;;5059066;28;20371;-72
2021/04/24 02:32:34;;;;;;;13.95;11.13;;;9.60;87.90;;;;;;5058706;28;20029;-72
2021/04/24 02:35:01;;;;;;;14.73;11.65;;;9.60;88.00;;;;;;5058752;28;20067;-72
2021/04/24 02:37:26;;;;;;;13.45;11.32;;;9.60;87.50;;;;;;5058061;28;20021;-72
2021/04/24 02:39:53;;;;;;;14.45;11.80;;;9.60;87.30;;;;;;5058835;28;20028;-72
2021/04/24 02:42:24;;;;;;;12.40;11.10;;;9.50;87.50;;;;;;5058837;28;20037;-72
2021/04/24 02:44:51;;;;;;;17.40;11.18;;;9.50;87.90;;;;;;5058704;28;20376;-72
2021/04/24 02:47:18;;;;;;;13.07;11.68;;;9.50;88.30;;;;;;5058648;28;20029;-72
2021/04/24 02:49:44;;;;;;;12.65;10.90;;;9.50;88.40;;;;;;5058380;28;20025;-72
2021/04/24 02:52:09;;;;;;;14.35;10.80;;;9.50;88.30;;;;;;5058321;28;20117;-73
2021/04/24 02:54:36;;;;;;;16.05;12.10;;;9.40;88.40;;;;;;5058517;28;20139;-72
2021/04/24 02:57:03;;;;;;;18.98;11.55;;;9.40;88.10;;;;;;5058488;28;20025;-72
2021/04/24 02:59:29;;;;;;;13.20;10.75;;;9.30;88.60;;;;;;5058497;28;20294;-72
2021/04/24 03:01:55;;;;;;;15.48;11.63;;;9.30;88.60;;;;;;5058154;28;20032;-72
2021/04/24 03:04:21;;;;;;;16.00;11.32;;;9.40;87.90;;;;;;5058002;28;20108;-72
2021/04/24 03:06:47;;;;;;;13.35;11.45;;;9.40;88.00;;;;;;5057996;28;20057;-72
2021/04/24 03:09:13;;;;;;;15.07;11.93;;;9.40;88.50;;;;;;5058256;28;20424;-72
2021/04/24 03:11:39;;;;;;;14.43;12.30;;;9.30;88.20;;;;;;5058021;28;20074;-72
2021/04/24 03:14:06;;;;;;;15.52;12.90;;;9.30;88.00;;;;;;5057851;28;20413;-72
2021/04/24 03:16:32;;;;;;;16.42;12.38;;;9.30;87.90;;;;;;5058021;28;20056;-72
2021/04/24 03:18:58;;;;;;;21.10;12.48;;;9.40;88.30;;;;;;5057772;28;20017;-72
2021/04/24 03:21:25;;;;;;;15.38;11.15;;;9.40;88.20;;;;;;5057771;28;20409;-72
2021/04/24 03:23:53;;;;;;;13.10;11.55;;;9.40;88.10;;;;;;5057880;28;20017;-72
2021/04/24 03:26:19;;;;;;;16.52;11.10;;;9.40;87.50;;;;;;5057655;28;20098;-72
2021/04/24 03:28:44;;;;;;;13.73;11.20;;;9.30;87.50;;;;;;5057954;28;20025;-72
2021/04/24 03:31:11;;;;;;;17.30;12.32;;;9.40;87.80;;;;;;5057898;28;20313;-72
2021/04/24 03:33:37;;;;;;;15.57;11.60;;;9.40;87.70;;;;;;5057754;28;20029;-72
2021/04/24 03:36:03;;;;;;;17.25;12.02;;;9.40;87.70;;;;;;5057442;28;20095;-73
2021/04/24 03:38:29;;;;;;;13.05;11.68;;;9.40;87.80;;;;;;5057385;28;20025;-73
2021/04/24 03:40:55;;;;;;;13.45;11.57;;;9.40;88.10;;;;;;5057698;28;20021;-72
2021/04/24 03:43:21;;;;;;;17.50;13.75;;;9.30;88.10;;;;;;5057589;28;20109;-74
2021/04/24 03:45:47;;;;;;;15.00;12.18;;;9.30;88.30;;;;;;5057292;28;20036;-74
2021/04/24 03:48:12;;;;;;;18.42;11.55;;;9.30;88.50;;;;;;5057507;28;20032;-75
2021/04/24 03:50:38;;;;;;;17.10;12.25;;;9.30;88.30;;;;;;5056799;28;20027;-75
2021/04/24 03:53:04;;;;;;;16.23;13.38;;;9.20;88.20;;;;;;5057332;28;20037;-75
2021/04/24 03:55:29;;;;;;;14.98;12.80;;;9.20;88.40;;;;;;5057243;28;20114;-72
2021/04/24 03:57:55;;;;;;;14.18;12.00;;;9.10;88.20;;;;;;5056086;28;20111;-74
2021/04/24 04:00:24;;;;;;;16.08;11.15;;;9.10;88.40;;;;;;5057357;28;20025;-75
2021/04/24 04:02:51;;;;;;;17.27;11.15;;;9.10;88.70;;;;;;5057296;28;20021;-74
2021/04/24 04:05:19;;;;;;;14.55;12.20;;;9.10;88.70;;;;;;5057001;28;20029;-74
2021/04/24 04:07:45;;;;;;;22.02;17.52;;;9.10;88.70;;;;;;5056915;28;20127;-74
2021/04/24 04:10:14;;;;;;;21.67;16.58;;;9.00;89.00;;;;;;5056897;28;20424;-74
2021/04/24 04:12:40;;;;;;;17.42;11.98;;;8.90;89.20;;;;;;5055832;28;20033;-75
2021/04/24 04:15:06;;;;;;;13.55;11.95;;;8.90;89.50;;;;;;5056965;28;20075;-75
2021/04/24 04:17:32;;;;;;;17.40;13.40;;;8.90;89.60;;;;;;5057082;28;20428;-75
2021/04/24 04:19:58;;;;;;;18.08;15.00;;;8.80;89.70;;;;;;5057084;28;20028;-72
2021/04/24 04:37:41;;;;;;;15.20;12.68;;;8.90;89.50;;;;;;5033802;28;20135;-72
2021/04/24 04:40:08;;;;;;;15.38;12.18;;;9.00;89.40;;;;;;5056857;28;20095;-74
2021/04/24 04:42:34;;;;;;;16.23;11.95;;;9.00;89.50;;;;;;5056749;28;20032;-74
2021/04/24 04:45:00;;;;;;;13.02;11.25;;;9.00;89.40;;;;;;5056746;28;20128;-72
2021/04/24 04:47:26;;;;;;;13.95;11.50;;;9.10;89.50;;;;;;5056772;28;20330;-72
2021/04/24 04:49:52;;;;;;;13.68;10.70;;;9.20;89.70;;;;;;5056755;28;20025;-72
2021/04/24 04:52:18;;;;;;;12.50;11.18;;;9.20;89.80;;;;;;5056383;28;20032;-72
2021/04/24 04:54:44;;;;;;;19.33;11.23;;;9.40;88.90;;;;;;5056697;28;20025;-73
2021/04/24 04:57:10;;;;;;;11.68;10.43;;;9.50;88.50;;;;;;5056308;28;20033;-72
2021/04/24 04:59:36;;;;;;;13.20;10.90;;;9.60;88.30;;;;;;5056380;28;20025;-72
2021/04/24 05:02:01;;;;;;;15.35;12.40;;;9.60;88.30;;;;;;5060510;28;20029;-72
2021/04/24 05:04:27;;;;;;;20.15;11.07;;;9.70;88.20;;;;;;5060594;28;20053;-72
2021/04/24 05:06:53;;;;;;;15.27;11.25;;;9.70;88.10;;;;;;5060325;28;20435;-72
2021/04/24 05:09:21;;;;;;;14.05;10.68;;;9.80;88.00;;;;;;5060591;28;20116;-72
2021/04/24 05:11:47;;;;;;;12.63;10.43;;;9.80;88.40;;;;;;5060291;28;20420;-72
2021/04/24 05:14:13;;;;;;;12.35;9.93;;;9.80;88.40;;;;;;5060410;28;20017;-72
2021/04/24 05:16:39;;;;;;;12.02;9.50;;;9.90;88.50;;;;;;5060035;28;20056;-72
2021/04/24 05:19:04;;;;;;;13.25;9.32;;;9.90;88.50;;;;;;5060084;28;20071;-72
2021/04/24 05:21:30;;;;;;;17.80;11.77;;;10.00;88.60;;;;;;5060414;28;20029;-72
2021/04/24 05:23:56;;;;;;;12.40;11.00;;;10.10;87.90;;;;;;5060020;28;20028;-72
2021/04/24 05:26:22;;;;;;;11.38;10.23;;;10.20;88.10;;;;;;5060248;28;20040;-72
2021/04/24 05:28:48;;;;;;;12.35;9.50;;;10.40;87.40;;;;;;5059881;28;20029;-72
2021/04/24 05:31:14;;;;;;;14.57;10.00;;;10.60;83.90;;;;;;5059883;28;20033;-72
2021/04/24 05:33:40;;;;;;;10.93;9.65;;;10.70;82.80;;;;;;5059758;28;20032;-72
2021/04/24 05:36:10;;;;;;;12.88;9.82;;;10.90;82.40;;;;;;5059711;28;20065;-72
2021/04/24 05:38:36;;;;;;;14.48;9.50;;;11.10;82.10;;;;;;5059788;28;20037;-72
2021/04/24 05:41:02;;;;;;;10.55;8.35;;;11.30;81.90;;;;;;5059903;28;20078;-72
2021/04/24 05:53:34;;;;;;;9.55;7.88;;;12.00;80.40;;;;;;5059808;28;20114;-72
2021/04/24 05:56:00;;;;;;;11.27;8.20;;;12.20;79.30;;;;;;5059627;28;20029;-72
2021/04/24 05:58:26;;;;;;;10.57;8.15;;;12.20;79.50;;;;;;5059656;28;20059;-72
2021/04/24 06:00:52;;;;;;;12.85;9.73;;;12.10;78.20;;;;;;5059334;28;20024;-72
2021/04/24 06:03:18;;;;;;;12.20;10.40;;;12.10;79.00;;;;;;5059211;28;20025;-72
2021/04/24 06:05:43;;;;;;;11.35;10.25;;;12.10;80.90;;;;;;5059497;28;20021;-72
2021/04/24 06:08:09;;;;;;;10.98;9.35;;;12.10;81.70;;;;;;5059151;28;20040;-72
2021/04/24 06:10:35;;;;;;;8.43;7.43;;;12.10;83.10;;;;;;5059437;28;20025;-72
2021/04/24 06:13:00;;;;;;;13.32;7.40;;;12.20;80.20;;;;;;5058476;28;20364;-72
2021/04/24 06:15:26;;;;;;;9.82;7.68;;;12.30;78.60;;;;;;5058880;28;20483;-72
2021/04/24 06:17:52;;;;;;;11.10;7.43;;;12.40;77.10;;;;;;5059353;28;20025;-72
2021/04/24 06:20:18;;;;;;;9.05;8.00;;;12.50;77.20;;;;;;5058991;28;20021;-72
2021/04/24 06:22:44;;;;;;;10.68;8.45;;;12.60;78.90;;;;;;5058835;28;20028;-72
2021/04/24 06:25:12;;;;;;;10.85;8.38;;;12.60;78.70;;;;;;5057777;28;20029;-72
2021/04/24 06:27:38;;;;;;;10.55;7.63;;;12.80;81.20;;;;;;5059085;28;20024;-72
2021/04/24 06:30:06;;;;;;;10.43;7.93;;;12.80;80.80;;;;;;5059080;28;20379;-72
2021/04/24 06:32:33;;;;;;;10.75;7.30;;;12.90;80.10;;;;;;5058707;28;20040;-72
2021/04/24 06:34:58;;;;;;;8.20;7.15;;;13.00;79.70;;;;;;5058468;28;20491;-72
2021/04/24 06:37:24;;;;;;;12.60;7.35;;;13.10;79.30;;;;;;5058927;28;20052;-72
2021/04/24 06:39:50;;;;;;;9.80;7.68;;;13.10;78.00;;;;;;5058452;28;20314;-72
2021/04/24 06:42:16;;;;;;;10.88;7.93;;;13.20;76.10;;;;;;5058535;28;20325;-72
2021/04/24 06:44:46;;;;;;;8.70;7.15;;;13.20;75.90;;;;;;5058441;28;20024;-72
2021/04/24 06:47:12;;;;;;;8.32;7.43;;;13.20;77.70;;;;;;5058427;28;20029;-72
2021/04/24 06:49:38;;;;;;;7.63;6.82;;;13.20;76.80;;;;;;5058739;28;20052;-72
2021/04/24 06:52:05;;;;;;;10.10;7.43;;;13.20;76.50;;;;;;5058374;28;20061;-72
2021/04/24 06:54:31;;;;;;;7.63;6.75;;;13.30;77.30;;;;;;5058677;28;20044;-72
2021/04/24 06:56:57;;;;;;;11.15;7.32;;;13.30;76.60;;;;;;5058522;28;20112;-72
2021/04/24 06:59:23;;;;;;;7.90;6.18;;;13.30;74.60;;;;;;5057269;28;20108;-72
2021/04/24 07:01:48;;;;;;;12.23;6.72;;;13.30;71.30;;;;;;5058461;28;20021;-72
2021/04/24 07:04:14;;;;;;;8.57;6.22;;;13.20;73.80;;;;;;5058339;28;20401;-72
2021/04/24 07:06:40;;;;;;;8.77;5.72;;;13.20;71.30;;;;;;5058354;28;20423;-72
2021/04/24 07:09:06;;;;;;;9.98;6.43;;;13.30;73.20;;;;;;5058322;28;20025;-72
2021/04/24 07:11:32;;;;;;;7.10;4.40;;;13.60;71.10;;;;;;5058030;28;20423;-72
2021/04/24 07:13:57;;;;;;;9.88;5.22;;;13.90;71.90;;;;;;5058165;28;20032;-72
2021/04/24 07:16:23;;;;;;;9.50;5.30;;;14.50;68.30;;;;;;5058118;28;20036;-72
2021/04/24 07:18:49;;;;;;;8.88;6.40;;;14.80;66.20;;;;;;5057842;28;20072;-72
2021/04/24 07:21:14;;;;;;;7.03;5.03;;;14.80;68.60;;;;;;5057852;28;20067;-72
2021/04/24 07:23:41;;;;;;;7.78;6.20;;;14.60;66.30;;;;;;5057964;28;20036;-72
2021/04/24 07:26:08;;;;;;;8.18;5.35;;;14.40;67.10;;;;;;5058008;28;20037;-72
2021/04/24 07:28:34;;;;;;;9.50;5.38;;;14.40;67.50;;;;;;5057975;28;20029;-72
2021/04/24 07:31:00;;;;;;;5.45;4.15;;;14.70;69.90;;;;;;5057910;28;20033;-72
2021/04/24 07:33:26;;;;;;;7.07;4.70;;;14.80;66.70;;;;;;5057500;28;20063;-72
2021/04/24 07:35:52;;;;;;;6.28;4.70;;;14.90;68.50;;;;;;5057411;28;20068;-72
2021/04/24 07:38:19;;;;;;;6.68;4.68;;;15.00;66.90;;;;;;5057503;28;20041;-72
2021/04/24 07:40:45;;;;;;;10.15;4.80;;;15.00;67.70;;;;;;5057400;28;20056;-72
2021/04/24 07:43:11;;;;;;;8.05;5.25;;;14.90;65.90;;;;;;5057405;28;20029;-72
2021/04/24 07:45:37;;;;;;;9.90;5.85;;;14.80;66.00;;;;;;5057258;28;20060;-72
2021/04/24 07:48:04;;;;;;;7.07;5.43;;;14.80;67.60;;;;;;5057597;28;20025;-72
2021/04/24 08:03:58;;;;;;;6.03;4.50;;;15.80;64.60;;;;;;5057340;28;20028;-72
2021/04/24 08:06:23;;;;;;;5.18;3.92;;;16.60;59.90;;;;;;5057260;28;20029;-72
2021/04/24 08:08:50;;;;;;;7.13;3.80;;;16.80;61.00;;;;;;5056964;28;20029;-72
2021/04/24 08:11:16;;;;;;;6.10;4.28;;;16.60;57.90;;;;;;5056921;28;20031;-72
2021/04/24 08:13:42;;;;;;;8.32;4.55;;;16.80;60.40;;;;;;5057080;28;20044;-72
2021/04/24 08:16:08;;;;;;;11.13;4.10;;;16.70;58.50;;;;;;5057062;28;20024;-73
2021/04/24 08:18:33;;;;;;;6.35;4.07;;;16.80;60.30;;;;;;5057097;28;20320;-72
2021/04/24 08:20:59;;;;;;;6.65;3.88;;;17.40;59.90;;;;;;5056807;28;20328;-72
2021/04/24 08:23:25;;;;;;;5.57;3.38;;;18.20;55.90;;;;;;5056775;28;20025;-73
2021/04/24 08:25:50;;;;;;;5.53;3.90;;;18.50;55.70;;;;;;5056680;28;20033;-72
2021/04/24 08:28:16;;;;;;;5.72;3.78;;;18.70;55.70;;;;;;5056996;28;20036;-72
2021/04/24 08:30:42;;;;;;;5.88;4.03;;;19.00;54.60;;;;;;5056674;28;20052;-73
2021/04/24 08:33:09;;;;;;;5.30;4.00;;;19.30;52.90;;;;;;5056636;28;20071;-72
2021/04/24 08:35:35;;;;;;;6.32;3.92;;;19.60;52.60;;;;;;5056271;28;20040;-73
2021/04/24 08:38:02;;;;;;;5.35;3.80;;;19.70;53.60;;;;;;5056396;28;20475;-73
2021/04/24 08:40:27;;;;;;;5.40;3.53;;;20.00;52.70;;;;;;5056872;28;20348;-73
2021/04/24 08:42:55;;;;;;;7.18;4.50;;;20.40;52.30;;;;;;5056523;28;20025;-73
2021/04/24 08:45:23;;;;;;;5.13;4.18;;;20.70;50.80;;;;;;5056701;28;20143;-73
2021/04/24 08:47:52;;;;;;;5.30;4.00;;;21.20;50.00;;;;;;5056531;28;20440;-72
2021/04/24 08:50:26;;;;;;;7.55;5.18;;;21.60;51.70;;;;;;5056849;28;20029;-73
2021/04/24 08:52:53;;;;;;;5.32;4.30;;;21.40;49.50;;;;;;5056418;28;20025;-73
2021/04/24 08:55:23;;;;;;;6.40;4.28;;;21.30;50.90;;;;;;5056608;28;20324;-73
2021/04/24 08:57:49;;;;;;;5.20;4.43;;;21.50;50.20;;;;;;5056997;28;20415;-71
2021/04/24 09:00:18;;;;;;;6.72;3.75;;;21.70;52.80;;;;;;5056386;28;20033;-72
2021/04/24 09:02:45;;;;;;;8.23;4.75;;;21.70;51.80;;;;;;5056586;28;20044;-73
2021/04/24 09:05:13;;;;;;;9.43;5.40;;;22.00;51.20;;;;;;5056257;28;20025;-72
2021/04/24 09:07:39;;;;;;;4.93;4.43;;;22.20;49.10;;;;;;5056084;28;20029;-72
2021/04/24 09:10:05;;;;;;;7.97;4.88;;;22.10;48.80;;;;;;5056240;28;20029;-73
2021/04/24 09:12:39;;;;;;;6.75;5.03;;;22.10;49.30;;;;;;5056545;28;20052;-73
2021/04/24 09:15:13;;;;;;;7.30;5.03;;;22.00;51.90;;;;;;5056087;28;20100;-72
2021/04/24 09:17:52;;;;;;;6.93;5.47;;;21.90;49.50;;;;;;5056243;28;20417;-73
2021/04/24 09:20:20;;;;;;;12.13;4.95;;;21.80;50.30;;;;;;5056496;28;20029;-73
2021/04/24 09:22:58;;;;;;;8.95;5.05;;;22.10;50.00;;;;;;5056335;28;20021;-73
2021/04/24 09:25:30;;;;;;;9.98;5.78;;;22.30;50.90;;;;;;5056017;28;20090;-71
2021/04/24 09:27:55;;;;;;;7.95;6.22;;;22.40;51.00;;;;;;5056378;28;20057;-72
2021/04/24 09:30:31;;;;;;;6.50;5.13;;;22.40;49.90;;;;;;5056378;28;20060;-73
2021/04/24 09:33:13;;;;;;;11.20;6.00;;;22.30;49.80;;;;;;5056344;28;20330;-73
2021/04/24 09:35:48;;;;;;;11.18;5.35;;;22.50;48.80;;;;;;5056132;28;20091;-73
2021/04/24 09:38:26;;;;;;;8.55;4.70;;;22.60;49.90;;;;;;5055839;28;20429;-73
2021/04/24 09:41:12;;;;;;;7.00;4.45;;;22.80;50.30;;;;;;5055930;28;20486;-72
2021/04/24 09:43:57;;;;;;;;;;;22.90;51.20;;;;;;5056277;28;20104;-72
2021/04/24 09:46:32;;;;;;;6.82;5.28;;;22.90;47.20;;;;;;5056237;28;20001;-72
2021/04/24 09:49:08;;;;;;;8.75;5.10;;;23.10;51.10;;;;;;5059676;28;20029;-72
2021/04/24 09:51:39;;;;;;;7.00;5.45;;;23.30;48.70;;;;;;5059826;28;20032;-72
2021/04/24 09:54:07;;;;;;;8.85;5.45;;;23.10;47.10;;;;;;5059869;28;20120;-72
2021/04/24 09:56:32;;;;;;;11.45;6.28;;;23.30;50.90;;;;;;5059338;28;20443;-73
2021/04/24 09:59:07;;;;;;;9.77;6.47;;;23.20;47.40;;;;;;5059392;28;20112;-72
2021/04/24 10:01:34;;;;;;;7.43;5.85;;;23.00;49.40;;;;;;5059347;28;20021;-72
2021/04/24 10:04:01;;;;;;;9.52;5.88;;;22.80;49.20;;;;;;5059521;28;20302;-72
2021/04/24 10:06:31;;;;;;;12.00;6.30;;;23.00;50.90;;;;;;5059522;28;20017;-72
2021/04/24 10:09:14;;;;;;;9.55;6.38;;;23.20;49.90;;;;;;5059500;28;20025;-72
2021/04/24 10:11:47;;;;;;;8.70;5.90;;;23.10;50.90;;;;;;5059167;28;20492;-72
2021/04/24 10:14:25;;;;;;;9.32;6.47;;;23.10;51.20;;;;;;5056462;28;20363;-73
2021/04/24 10:16:51;;;;;;;12.70;6.63;;;23.10;47.70;;;;;;5050214;28;20485;-73
2021/04/24 10:19:17;;;;;;;7.78;5.97;;;23.40;48.60;;;;;;5039245;28;20049;-72
2021/04/24 10:21:44;;;;;;;5.95;5.38;;;23.50;47.80;;;;;;5038998;28;20045;-73
2021/04/24 10:24:11;;;;;;;7.85;5.95;;;23.60;50.60;;;;;;5039156;28;20033;-72
2021/04/24 10:26:38;;;;;;;9.95;6.25;;;23.80;48.00;;;;;;5038912;28;20040;-72
2021/04/24 10:29:05;;;;;;;10.07;7.97;;;23.70;49.50;;;;;;5039181;28;20049;-72
2021/04/24 10:31:32;;;;;;;8.15;6.32;;;23.50;48.60;;;;;;5039122;28;20076;-72
2021/04/24 10:34:00;;;;;;;10.90;6.90;;;23.20;49.30;;;;;;5039073;28;20042;-72
2021/04/24 10:36:28;;;;;;;9.68;6.43;;;23.30;51.80;;;;;;5038983;28;20029;-72
2021/04/24 10:38:55;;;;;;;9.15;6.50;;;23.50;50.70;;;;;;5037525;28;20053;-72
2021/04/24 10:41:37;;;;;;;7.93;6.00;;;23.70;49.90;;;;;;5038688;28;20049;-73
2021/04/24 10:44:05;;;;;;;9.45;7.38;;;23.90;50.30;;;;;;5038575;28;20418;-72
2021/04/24 10:46:56;;;;;;;9.75;6.05;;;23.80;46.70;;;;;;5038824;28;20088;-72
2021/04/24 10:49:27;;;;;;;9.82;6.40;;;23.70;51.20;;;;;;5037751;28;20049;-72
2021/04/24 10:52:04;;;;;;;8.40;5.78;;;23.50;49.80;;;;;;5038781;28;20414;-72
2021/04/24 10:54:34;;;;;;;6.22;5.57;;;23.50;49.60;;;;;;5038782;28;20049;-72
2021/04/24 10:57:01;;;;;;;14.27;6.93;;;23.60;48.90;;;;;;5038235;28;20034;-71
2021/04/24 10:59:29;;;;;;;8.07;6.28;;;23.70;47.60;;;;;;5037960;28;20031;-72
2021/04/24 11:02:13;;;;;;;10.02;5.65;;;23.90;50.70;;;;;;5038255;28;20025;-72
2021/04/24 11:04:45;;;;;;;7.80;5.88;;;23.90;50.50;;;;;;5038157;28;20056;-72
2021/04/24 11:07:25;;;;;;;8.05;6.35;;;23.70;47.50;;;;;;5038555;28;20033;-72
2021/04/24 11:10:13;;;;;;;9.65;7.03;;;23.60;49.10;;;;;;5038391;28;20041;-72
2021/04/24 11:12:42;;;;;;;7.55;6.18;;;23.50;46.90;;;;;;5038361;28;20029;-72
2021/04/24 11:15:10;;;;;;;7.93;5.75;;;23.50;47.10;;;;;;5038193;28;20033;-72
2021/04/24 11:17:40;;;;;;;8.35;6.63;;;23.20;51.20;;;;;;5037914;28;20029;-71
2021/04/24 11:20:08;;;;;;;10.15;6.18;;;23.00;50.40;;;;;;5038249;28;20030;-71
2021/04/24 11:22:41;;;;;;;8.35;6.90;;;22.90;51.50;;;;;;5037822;28;20326;-73
2021/04/24 11:25:30;;;;;;;9.02;6.70;;;23.00;50.80;;;;;;5038249;28;20417;-72
2021/04/24 11:28:08;;;;;;;9.27;6.82;;;23.10;49.30;;;;;;5037317;28;20042;-72
2021/04/24 11:30:55;;;;;;;10.75;6.97;;;22.70;48.40;;;;;;5037703;28;20422;-71
2021/04/24 11:33:39;;;;;;;8.85;6.90;;;22.80;50.50;;;;;;5037579;28;20048;-72
2021/04/24 11:36:25;;;;;;;7.85;6.95;;;22.70;50.40;;;;;;5037881;28;20065;-72
2021/04/24 11:38:54;;;;;;;9.43;7.65;;;22.40;53.30;;;;;;5037332;28;20099;-73
2021/04/24 11:41:27;;;;;;;8.95;6.25;;;22.50;50.10;;;;;;5037802;28;20056;-73
2021/04/24 11:43:53;;;;;;;7.63;6.30;;;22.60;52.50;;;;;;5037562;28;20480;-73
2021/04/24 11:46:39;;;;;;;8.05;6.10;;;22.80;52.10;;;;;;5037662;28;20033;-73
2021/04/24 11:49:11;;;;;;;9.05;6.60;;;23.00;50.20;;;;;;5037661;28;20113;-73
2021/04/24 11:51:41;;;;;;;8.52;6.45;;;22.60;50.90;;;;;;5037373;28;20109;-72
2021/04/24 11:54:25;;;;;;;9.95;6.97;;;22.00;50.10;;;;;;5037617;28;20029;-71
2021/04/24 11:56:50;;;;;;;10.50;7.15;;;21.70;53.40;;;;;;5037457;28;20061;-71
2021/04/24 11:59:21;;;;;;;8.93;7.03;;;21.00;51.20;;;;;;5037147;28;20448;-71
2021/04/24 12:01:47;;;;;;;9.80;6.60;;;20.30;52.40;;;;;;5037521;28;20348;-71
2021/04/24 12:04:27;;;;;;;9.82;6.53;;;20.00;56.90;;;;;;5037307;28;20021;-71
2021/04/24 12:07:00;;;;;;;8.38;7.47;;;20.00;56.80;;;;;;5037029;28;20064;-73
2021/04/24 12:09:26;;;;;;;9.50;6.93;;;20.30;56.80;;;;;;5036878;28;20325;-72
2021/04/24 12:12:10;;;;;;;9.48;6.32;;;20.80;54.60;;;;;;5037044;28;20040;-71
2021/04/24 12:14:36;;;;;;;9.40;6.60;;;21.10;58.30;;;;;;5036902;28;20032;-73
2021/04/24 12:17:08;;;;;;;10.48;7.93;;;21.30;55.70;;;;;;5036790;28;20112;-72
2021/04/24 12:19:37;;;;;;;9.68;6.50;;;21.40;52.50;;;;;;5036903;28;20021;-73
2021/04/24 12:22:20;;;;;;;8.50;7.25;;;21.00;53.90;;;;;;5037153;28;20026;-72
2021/04/24 12:24:57;;;;;;;11.18;7.38;;;20.30;55.40;;;;;;5037218;28;20314;-73
2021/04/24 12:27:24;;;;;;;10.52;7.60;;;20.00;57.90;;;;;;5036809;28;20038;-74
2021/04/24 12:29:51;;;;;;;9.02;6.82;;;20.10;57.50;;;;;;5037076;28;20021;-71
2021/04/24 12:32:19;;;;;;;7.43;6.55;;;20.30;59.90;;;;;;5036712;28;20115;-71
2021/04/24 12:34:45;;;;;;;14.80;8.38;;;20.80;57.80;;;;;;5036937;28;20032;-71
2021/04/24 12:37:14;;;;;;;11.60;8.18;;;20.90;56.00;;;;;;5036929;28;20088;-71
2021/04/24 12:39:41;;;;;;;9.40;7.75;;;21.00;54.40;;;;;;5036517;28;20041;-71
2021/04/24 12:42:10;;;;;;;13.45;8.38;;;21.10;56.40;;;;;;5036926;28;20286;-73
2021/04/24 12:44:36;;;;;;;11.23;7.78;;;21.00;54.60;;;;;;5036807;28;20022;-72
2021/04/24 12:47:02;;;;;;;11.13;7.40;;;20.70;57.40;;;;;;5036554;28;20480;-74
2021/04/24 12:49:28;;;;;;;10.35;7.78;;;20.70;57.40;;;;;;5036883;28;20099;-71
2021/04/24 12:52:07;;;;;;;12.70;8.93;;;20.80;58.90;;;;;;5036826;28;20057;-73
2021/04/24 12:54:34;;;;;;;9.55;7.88;;;20.90;53.00;;;;;;5036929;28;20033;-71
2021/04/24 12:57:21;;;;;;;9.15;7.78;;;20.80;57.60;;;;;;5036395;28;20065;-72
2021/04/24 13:00:00;;;;;;;9.30;8.30;;;20.60;56.00;;;;;;5036488;28;20021;-73
2021/04/24 13:02:39;;;;;;;12.40;9.00;;;20.50;57.60;;;;;;5036470;28;20398;-73
2021/04/24 13:05:09;;;;;;;9.15;8.13;;;20.40;55.00;;;;;;5036609;28;20018;-72
2021/04/24 13:07:36;;;;;;;12.50;7.97;;;20.10;55.60;;;;;;5036656;28;20025;-72
2021/04/24 13:10:12;;;;;;;13.52;8.63;;;19.90;59.30;;;;;;5036674;28;20026;-73
2021/04/24 13:12:52;;;;;;;10.65;7.90;;;20.00;61.20;;;;;;5036696;28;20101;-73
2021/04/24 13:15:19;;;;;;;11.25;8.23;;;20.20;60.40;;;;;;5036186;28;20057;-72
2021/04/24 13:17:45;;;;;;;13.68;9.13;;;20.30;57.40;;;;;;5036572;28;20287;-73
2021/04/24 13:20:24;;;;;;;11.35;8.32;;;20.40;57.40;;;;;;5036568;28;20036;-73
2021/04/24 13:22:49;;;;;;;9.15;8.13;;;20.50;63.70;;;;;;5039637;28;20033;-73
2021/04/24 13:25:38;;;;;;;10.40;9.27;;;20.70;57.30;;;;;;5039982;28;20117;-73